• Join FlightAware (Why Join?)
  • Login
  • US Flag 
09:49PM EDT


 

Airport Tracker/Info


-or-


 

Live Flight TrackerFlight Track Log ✈ CHQ4720 ✈ 2013-May-10 ✈ KBOS - KCLE

Flight Track Log - Related Links

Times and Time Zones

All times are in EDT time to prevent confusion due to time zone crossing. See the CHQ4720 flight status page for this flight to view local times or setup timezone preferences in your user account.

Time Position Orientation Groundspeed Altitude Reporting Facility
EDT Latitude Longitude Course Direction KTS MPH feet Rate Location/Type
02:27PM 42.3667 -70.9667 300° West 160 184 700  Level KA90
02:28PM 42.3667 -70.9000 90° East 185 213 2,500 1,980 Climbing KA90
02:29PM 42.3833 -70.8333 71° East 215 247 4,700 2,040 Climbing KA90
02:30PM 42.4333 -70.7667 45° Northeast 228 262 6,800 1,740 Climbing KA90
02:31PM 42.6396 -70.9483 300° West  Level FlightAware Approximate
02:32PM 42.6841 -71.0551 300° West  Level FlightAware Approximate
02:32PM 42.5286 -70.8314 333° Northwest 237 273 9,900  Level Boston Center
02:33PM 42.5756 -70.9092 309° West 228 262 12,100 1,920 Climbing Boston Center
02:34PM 42.6097 -70.9703 307° West 233 268 13,800 1,800 Climbing Boston Center
02:35PM 42.6544 -71.0483 308° West 238 274 15,700 1,620 Climbing Boston Center
02:36PM 42.6928 -71.1181 307° West 245 282 17,100 1,560 Climbing Boston Center
02:37PM 42.7397 -71.2019 307° West 250 288 18,900 1,560 Climbing Boston Center
02:38PM 42.7822 -71.2803 306° West 255 293 20,300 1,380 Climbing Boston Center
02:39PM 42.7933 -71.3706 280° West 255 293 21,700 1,500 Climbing Boston Center
02:40PM 42.8028 -71.4694 277° West 260 299 23,400 1,500 Climbing Boston Center
02:41PM 42.8097 -71.5656 276° West 266 306 24,700 780 Climbing Boston Center
02:42PM 42.8208 -71.6731 278° West 277 319 25,000 120 Climbing Boston Center
02:43PM 42.8319 -71.7833 278° West 293 337 25,000  Level Boston Center
02:44PM 42.8453 -71.9106 278° West 293 337 25,000  Level Boston Center
02:45PM 42.8519 -72.0153 275° West 288 331 25,100 600 Climbing Boston Center
02:46PM 42.8625 -72.1144 278° West 277 319 26,200 1,020 Climbing Boston Center
02:47PM 42.8711 -72.2192 276° West 277 319 27,200 1,020 Climbing Boston Center
02:48PM 42.8900 -72.3267 284° West 277 319 28,300 1,020 Climbing Boston Center
02:49PM 42.8964 -72.4317 275° West 277 319 29,300 1,020 Climbing Boston Center
02:50PM 42.9067 -72.5364 278° West 277 319 30,400 1,080 Climbing Boston Center
02:51PM 42.9086 -72.6497 271° West 277 319 31,500 1,020 Climbing Boston Center
02:52PM 42.9169 -72.7492 277° West 271 312 32,500 780 Climbing Boston Center
02:53PM 42.9247 -72.8569 276° West 276 318 33,100 600 Climbing Boston Center
02:54PM 42.9347 -72.9675 277° West 287 330 33,800 420 Climbing Boston Center
02:55PM 42.9467 -73.0725 279° West 299 344 34,000 240 Climbing Boston Center
02:56PM 42.9564 -73.1892 277° West 309 356 34,300 480 Climbing Boston Center
02:57PM 42.9661 -73.3056 277° West 314 361 35,000 300 Climbing Boston Center
02:58PM 42.9733 -73.4361 274° West 314 361 35,000  Level Boston Center
02:59PM 42.9828 -73.5556 276° West 314 361 35,000  Level Boston Center
03:00PM 42.9919 -73.6664 276° West 309 356 35,000  Level Boston Center
03:01PM 43.0008 -73.7942 275° West 303 349 35,000  Level Boston Center
03:02PM 43.0081 -73.8967 276° West 286 329 35,000  Level Boston Center
03:03PM 43.0169 -74.0047 276° West 286 329 35,000  Level Boston Center
03:04PM 43.0236 -74.1242 274° West 300 345 35,000  Level Boston Center
03:05PM 43.0325 -74.2239 277° West 316 364 35,000  Level Boston Center
03:06PM 43.0447 -74.3719 276° West 329 379 35,000  Level Boston Center
03:07PM 43.0531 -74.4917 275° West 329 379 35,000  Level Boston Center
03:08PM 43.0592 -74.6028 274° West 317 365 35,000  Level Boston Center
03:09PM 43.0675 -74.7139 276° West 311 358 35,000  Level Boston Center
03:10PM 43.0772 -74.8506 276° West 306 352 35,000  Level Boston Center
03:11PM 43.0831 -74.9644 274° West 311 358 35,000  Level Boston Center
03:12PM 43.0908 -75.0872 275° West 316 364 35,000  Level Boston Center
03:13PM 43.1003 -75.2100 276° West 321 369 35,000  Level Boston Center
03:14PM 43.1097 -75.3356 276° West 327 376 35,000  Level Boston Center
03:15PM 43.1169 -75.4608 275° West 332 382 35,000 -300 Level Boston Center
03:16PM 43.1239 -75.5867 274° West 332 382 34,400 -1,080 Descending Boston Center
03:17PM 43.1322 -75.7378 274° West 332 382 32,700 -900 Descending Boston Center
03:19PM 43.1439 -75.9275 275° West 318 366 32,000 -300 Descending Cleveland Center
03:20PM 43.1508 -76.0494 275° West 318 366 32,000  Level Cleveland Center
03:21PM 43.1558 -76.1744 273° West 324 373 32,000  Level Cleveland Center
03:22PM 43.1331 -76.2956 256° West 330 380 32,000  Level Cleveland Center
03:23PM 43.0975 -76.4061 246° West 330 380 32,000  Level Cleveland Center
03:24PM 43.0600 -76.5222 246° West 330 380 32,000  Level Cleveland Center
03:25PM 43.0225 -76.6411 247° West 336 387 32,000  Level Cleveland Center
03:26PM 42.9789 -76.7744 246° West 342 394 32,000  Level Cleveland Center
03:27PM 42.9411 -76.8931 247° West 347 399 32,000  Level Cleveland Center
03:28PM 42.9031 -77.0089 246° West 347 399 32,000  Level Cleveland Center
03:29PM 42.8606 -77.1217 243° Southwest 342 394 32,000  Level Cleveland Center
03:30PM 42.8139 -77.2319 240° Southwest 342 394 32,000  Level Cleveland Center
03:31PM 42.7650 -77.3447 239° Southwest 342 394 32,000  Level Cleveland Center
03:32PM 42.7200 -77.4517 240° Southwest 342 394 32,000  Level Cleveland Center
03:33PM 42.6767 -77.5500 239° Southwest 342 394 32,000  Level Cleveland Center
03:34PM 42.6297 -77.6653 241° Southwest 342 394 32,000  Level Cleveland Center
03:35PM 42.5783 -77.7747 238° Southwest 342 394 32,000  Level Cleveland Center
03:36PM 42.5308 -77.8894 241° Southwest 348 400 32,000  Level Cleveland Center
03:37PM 42.4814 -78.0014 239° Southwest 348 400 32,000  Level Cleveland Center
03:38PM 42.4339 -78.1131 240° Southwest 348 400 32,000  Level Cleveland Center
03:39PM 42.3881 -78.2217 240° Southwest 342 394 32,000  Level Cleveland Center
03:40PM 42.3383 -78.3331 239° Southwest 342 394 32,000  Level Cleveland Center
03:41PM 42.2903 -78.4386 238° Southwest 342 394 32,000  Level Cleveland Center
03:42PM 42.2442 -78.5442 239° Southwest 342 394 32,000  Level Cleveland Center
03:43PM 42.1961 -78.6522 239° Southwest 342 394 32,000  Level Cleveland Center
03:44PM 42.1478 -78.7572 238° Southwest 342 394 32,000  Level Cleveland Center
03:45PM 42.1014 -78.8650 240° Southwest 342 394 32,000 -60 Level Cleveland Center
03:46PM 42.0528 -78.9669 237° Southwest 342 394 31,900 -780 Descending Cleveland Center
03:47PM 42.0083 -79.0714 240° Southwest 337 388 30,500 -1,440 Descending Cleveland Center
03:48PM 41.9597 -79.1731 237° Southwest 337 388 29,100 -780 Descending Cleveland Center
03:49PM 41.9169 -79.2717 240° Southwest 330 380 29,000 -60 Descending Cleveland Center
03:50PM 41.8722 -79.3647 237° Southwest 313 360 29,000  Level Cleveland Center
03:51PM 41.8294 -79.4628 240° Southwest 290 334 29,000 -360 Level Cleveland Center
03:52PM 41.7886 -79.5500 238° Southwest 284 327 28,300 -840 Descending Cleveland Center
03:53PM 41.7456 -79.6397 237° Southwest 299 344 27,400 -900 Descending Cleveland Center
03:54PM 41.6903 -79.7600 238° Southwest 331 381 26,500 -960 Descending Cleveland Center
03:55PM 41.6408 -79.8719 239° Southwest 349 402 25,500 -1,200 Descending Cleveland Center
03:56PM 41.6061 -79.9694 245° Southwest 361 415 24,100 -1,920 Descending Cleveland Center
03:57PM 41.5922 -80.1139 263° West 353 406 21,700 -2,280 Descending Cleveland Center
03:58PM 41.5842 -80.2417 265° West 339 390 19,600 -2,220 Descending Cleveland Center
03:59PM 41.5742 -80.3750 264° West 350 403 17,300 -2,220 Descending Cleveland Center
04:00PM 41.5658 -80.4917 265° West 350 403 15,200 -2,100 Descending Cleveland Center
04:01PM 41.5536 -80.6025 262° West 319 367 13,100 -2,040 Descending Cleveland Center
04:02PM 41.5472 -80.7164 266° West 307 353 11,200 -1,620 Descending Cleveland Center
04:03PM 41.5408 -80.8133 265° West 312 359 10,100 -900 Descending Cleveland Center
04:03PM 41.5344 -80.8717 262° West 302 348 10,000 -120 Descending Cleveland Center
04:04PM 41.5322 -80.9242 267° West 307 353 10,000  Level Cleveland Center
04:05PM 41.5278 -80.9825 264° West 278 320 10,000  Level Cleveland Center
04:05PM 41.5422 -81.0269 293° West 285 328 10,000  Level Cleveland Center
04:05PM 41.5586 -81.0800 292° West 331 381 10,000  Level Cleveland Center
04:06PM 41.5750 -81.1356 292° West 296 341 10,000  Level Cleveland Center
04:06PM 41.5894 -81.1856 291° West 301 346 10,000  Level Cleveland Center
04:07PM 41.6036 -81.2386 290° West 308 354 10,000 -240 Level Cleveland Center
04:08PM 41.6283 -81.2886 303° West 290 334 9,800 -900 Descending Cleveland Center
04:08PM 41.6492 -81.3194 312° West 282 325 9,100 -1,440 Descending Cleveland Center
04:08PM 41.6656 -81.3558 301° West 255 293 8,500 -1,320 Descending Cleveland Center
04:09PM 41.6883 -81.3922 310° West 252 290 7,800 -1,200 Descending Cleveland Center
04:09PM 41.7067 -81.4203 311° West 183 211 7,300 -840 Descending Cleveland Center
04:10PM 41.6942 -81.4453 236° Southwest 169 194 7,000 -300 Descending Cleveland Center
04:10PM 41.6689 -81.4531 193° South 178 205 7,000  Level Cleveland Center
04:11PM 41.6500 -81.4722 217° Southwest 131 151 7,000 -660 Level Cleveland Center
04:12PM 41.6353 -81.5000 235° Southwest 175 201 6,300 -1,020 Descending Cleveland Center
04:12PM 41.6164 -81.5275 227° Southwest 162 186 6,000 -360 Descending Cleveland Center
04:12PM 41.6056 -81.5494 237° Southwest 176 203 6,000 -600 Level Cleveland Center
04:14PM 41.5719 -81.5961 226° Southwest 158 182 5,100 -600 Descending Cleveland Center
04:14PM 41.5486 -81.6347 231° Southwest 152 175 4,800 -660 Descending Cleveland Center
04:16PM 41.5147 -81.6922 232° Southwest 179 206 3,800 -960 Descending Cleveland Center
04:17PM 41.4831 -81.7417 229° Southwest 179 206 2,800 -960 Descending Cleveland Center
04:18PM 41.4450 -81.7992 229° Southwest 156 180 1,800 -900 Descending Cleveland Center